createdAt,value
2017-11-30T00:00:51.653Z,-1.10
2017-11-30T00:01:54.571Z,-1.09
2017-11-30T00:02:57.843Z,-0.78
2017-11-30T00:04:00.769Z,-1.02
2017-11-30T00:05:03.695Z,-1.10
2017-11-30T00:06:06.689Z,-1.15
2017-11-30T00:07:09.668Z,-1.10
2017-11-30T00:08:12.608Z,-1.10
2017-11-30T00:09:15.891Z,-0.87
2017-11-30T00:10:18.946Z,-1.21
2017-11-30T00:11:21.881Z,-1.14
2017-11-30T00:12:25.125Z,-1.02
2017-11-30T00:13:28.112Z,-1.23
2017-11-30T00:14:31.081Z,-1.05
2017-11-30T00:15:34.351Z,-1.22
2017-11-30T00:16:37.307Z,-1.15
2017-11-30T00:17:40.322Z,-1.10
2017-11-30T00:18:43.287Z,-1.02
2017-11-30T00:19:46.279Z,-1.16
2017-11-30T00:20:49.257Z,-1.07
2017-11-30T00:21:53.739Z,-1.07
2017-11-30T00:22:56.654Z,-1.02
2017-11-30T00:23:59.617Z,-1.14
2017-11-30T00:25:02.592Z,-1.13
2017-11-30T00:26:05.621Z,-1.15
2017-11-30T00:27:08.621Z,-1.22
2017-11-30T00:28:11.910Z,-1.30
2017-11-30T00:29:14.822Z,-1.26
2017-11-30T00:30:17.795Z,-1.21
2017-11-30T00:31:20.753Z,-1.19
2017-11-30T00:32:23.709Z,-1.18
2017-11-30T00:33:26.764Z,-1.13
2017-11-30T00:34:30.066Z,-0.89
2017-11-30T00:35:33.035Z,-0.97
2017-11-30T00:36:35.869Z,-0.95
2017-11-30T00:37:38.736Z,-0.91
2017-11-30T00:38:41.595Z,-0.88
2017-11-30T00:39:44.498Z,-0.78
2017-11-30T00:40:47.785Z,-0.81
2017-11-30T00:41:50.730Z,-0.59
2017-11-30T00:42:53.654Z,-0.57
2017-11-30T00:43:56.576Z,-0.75
2017-11-30T00:44:59.991Z,-0.85
2017-11-30T00:46:02.925Z,-0.64
2017-11-30T00:47:06.671Z,-0.59
2017-11-30T00:48:09.691Z,-0.51
2017-11-30T00:49:12.635Z,-0.92
2017-11-30T00:50:15.621Z,-1.14
2017-11-30T00:51:18.578Z,-1.13
2017-11-30T00:52:21.525Z,-1.04
2017-11-30T00:53:24.938Z,-0.99
2017-11-30T00:54:27.860Z,-1.04
2017-11-30T00:55:30.823Z,-0.99
2017-11-30T00:56:33.758Z,-1.07
2017-11-30T00:57:36.699Z,-1.06
2017-11-30T00:58:39.647Z,-0.96
2017-11-30T00:59:43.117Z,-1.04
2017-11-30T01:00:46.068Z,-0.92
2017-11-30T01:01:48.984Z,-1.09
2017-11-30T01:02:51.919Z,-1.05
2017-11-30T01:03:54.863Z,-0.89
2017-11-30T01:04:57.770Z,-1.20
2017-11-30T01:06:01.106Z,-1.14
2017-11-30T01:07:04.209Z,-1.01
2017-11-30T01:08:07.254Z,-1.17
2017-11-30T01:09:10.837Z,-0.88
2017-11-30T01:10:13.876Z,-1.18
2017-11-30T01:11:16.801Z,-1.09
2017-11-30T01:12:20.130Z,-1.20
2017-11-30T01:13:23.038Z,-1.07
2017-11-30T01:14:25.982Z,-1.17
2017-11-30T01:15:28.949Z,-1.09
2017-11-30T01:16:31.882Z,-1.06
2017-11-30T01:17:35.130Z,-0.96
2017-11-30T01:18:38.126Z,-1.04
2017-11-30T01:19:41.635Z,-1.21
2017-11-30T01:20:44.495Z,-1.11
2017-11-30T01:21:47.351Z,-1.14
2017-11-30T01:22:50.201Z,-1.16
2017-11-30T01:23:53.478Z,-1.22
2017-11-30T01:24:56.318Z,-1.16
2017-11-30T01:25:59.148Z,-1.25
2017-11-30T01:27:01.997Z,-1.20
2017-11-30T01:28:04.824Z,-1.12
2017-11-30T01:29:07.672Z,-1.20
2017-11-30T01:30:11.018Z,-1.28
2017-11-30T01:31:13.960Z,-1.20
2017-11-30T01:32:16.867Z,-1.28
2017-11-30T01:33:19.771Z,-1.28
2017-11-30T01:34:22.660Z,-1.21
2017-11-30T01:35:25.657Z,-1.16
2017-11-30T01:36:28.998Z,-1.08
2017-11-30T01:37:31.949Z,-1.08
2017-11-30T01:38:34.860Z,-1.21
2017-11-30T01:39:37.872Z,-1.20
2017-11-30T01:40:40.776Z,-1.12
2017-11-30T01:41:43.735Z,-1.22
2017-11-30T01:42:46.635Z,-1.07
2017-11-30T01:43:49.558Z,-1.03
2017-11-30T01:44:52.497Z,-1.15
2017-11-30T01:45:55.540Z,-1.19
2017-11-30T01:46:58.467Z,-1.24
2017-11-30T01:48:01.748Z,-1.24
2017-11-30T01:49:04.731Z,-1.40
2017-11-30T01:50:07.660Z,-1.33
2017-11-30T01:51:10.606Z,-1.33
2017-11-30T01:52:13.540Z,-1.36
2017-11-30T01:53:16.470Z,-1.30
2017-11-30T01:54:19.779Z,-1.23
2017-11-30T01:55:22.774Z,-1.17
2017-11-30T01:56:25.744Z,-1.29
2017-11-30T01:57:28.664Z,-1.37
2017-11-30T01:58:31.626Z,-1.46
2017-11-30T01:59:34.578Z,-1.49
2017-11-30T02:00:37.901Z,-1.39
2017-11-30T02:01:40.829Z,-1.42
2017-11-30T02:02:43.767Z,-1.44
2017-11-30T02:03:46.853Z,-1.46
2017-11-30T02:04:49.833Z,-1.42
2017-11-30T02:05:52.817Z,-1.43
2017-11-30T02:06:56.965Z,-1.48
2017-11-30T02:07:59.947Z,-1.31
2017-11-30T02:09:02.961Z,-1.34
2017-11-30T02:10:05.938Z,-1.44
2017-11-30T02:11:08.853Z,-1.47
2017-11-30T02:12:11.808Z,-1.51
2017-11-30T02:13:15.256Z,-1.39
2017-11-30T02:14:18.328Z,-1.26
2017-11-30T02:15:21.245Z,-1.32
2017-11-30T02:16:24.248Z,-1.27
2017-11-30T02:17:27.205Z,-1.22
2017-11-30T02:18:30.147Z,-1.20
2017-11-30T02:19:33.767Z,-1.30
2017-11-30T02:20:36.830Z,-1.19
2017-11-30T02:21:39.947Z,-1.15
2017-11-30T02:22:42.836Z,-1.07
2017-11-30T02:23:45.652Z,-0.94
2017-11-30T02:24:48.441Z,-0.97
2017-11-30T02:25:51.727Z,-0.92
2017-11-30T02:26:54.556Z,-1.00
2017-11-30T02:27:57.403Z,-1.08
2017-11-30T02:29:00.314Z,-1.03
2017-11-30T02:30:03.289Z,-1.01
2017-11-30T02:31:06.218Z,-1.07
2017-11-30T02:32:09.646Z,-1.11
2017-11-30T02:33:12.562Z,-1.12
2017-11-30T02:34:15.510Z,-1.16
2017-11-30T02:35:19.423Z,-0.94
2017-11-30T02:36:22.601Z,-0.87
2017-11-30T02:37:25.870Z,-1.16
2017-11-30T02:38:29.097Z,-0.86
2017-11-30T02:39:32.083Z,-1.05
2017-11-30T02:40:34.982Z,-1.13
2017-11-30T02:41:37.844Z,-0.99
2017-11-30T02:42:40.744Z,-1.01
2017-11-30T02:43:43.686Z,-1.25
2017-11-30T02:44:46.976Z,-1.33
2017-11-30T02:45:49.904Z,-1.12
2017-11-30T02:46:52.821Z,-1.13
2017-11-30T02:47:55.827Z,-1.23
2017-11-30T02:48:58.756Z,-1.28
2017-11-30T02:50:01.733Z,-1.26
2017-11-30T02:51:04.646Z,-1.26
2017-11-30T02:52:07.650Z,-1.23
2017-11-30T02:53:10.626Z,-1.19
2017-11-30T02:54:13.574Z,-1.13
2017-11-30T02:55:16.539Z,-1.10
2017-11-30T02:56:19.458Z,-1.21
2017-11-30T02:57:23.094Z,-1.16
2017-11-30T02:58:26.288Z,-1.15
2017-11-30T02:59:29.208Z,-1.24
2017-11-30T03:00:32.156Z,-1.26
2017-11-30T03:01:35.061Z,-1.12
2017-11-30T03:02:37.993Z,-1.38
2017-11-30T03:03:41.378Z,-1.40
2017-11-30T03:04:45.138Z,-1.39
2017-11-30T03:05:48.100Z,-1.35
2017-11-30T03:06:51.010Z,-1.32
2017-11-30T03:07:53.930Z,-1.23
2017-11-30T03:08:56.851Z,-1.38
2017-11-30T03:10:00.282Z,-1.22
2017-11-30T03:11:03.262Z,-1.11
2017-11-30T03:12:06.181Z,-1.30
2017-11-30T03:13:09.168Z,-1.35
2017-11-30T03:14:12.085Z,-1.26
2017-11-30T03:15:15.071Z,-1.28
2017-11-30T03:16:18.338Z,-1.41
2017-11-30T03:17:21.243Z,-1.40
2017-11-30T03:18:24.561Z,-1.26
2017-11-30T03:19:27.693Z,-1.24
2017-11-30T03:20:30.692Z,-1.25
2017-11-30T03:21:33.594Z,-1.26
2017-11-30T03:22:36.922Z,-1.24
2017-11-30T03:23:39.749Z,-1.12
2017-11-30T03:24:42.582Z,-1.23
2017-11-30T03:25:45.419Z,-1.23
2017-11-30T03:26:48.215Z,-1.18
2017-11-30T03:27:51.119Z,-1.23
2017-11-30T03:28:54.459Z,-1.24
2017-11-30T03:29:57.370Z,-1.29
2017-11-30T03:31:00.306Z,-1.34
2017-11-30T03:32:03.275Z,-1.31
2017-11-30T03:33:06.249Z,-1.31
2017-11-30T03:34:09.164Z,-1.41
2017-11-30T03:35:12.445Z,-1.31
2017-11-30T03:36:15.370Z,-1.38
2017-11-30T03:37:18.334Z,-1.02
2017-11-30T03:38:21.243Z,-1.15
2017-11-30T03:39:24.153Z,-1.12
2017-11-30T03:40:27.083Z,-1.14
2017-11-30T03:41:30.444Z,-0.94
2017-11-30T03:42:33.372Z,-0.91
2017-11-30T03:43:36.272Z,-1.02
2017-11-30T03:44:39.442Z,-1.13
2017-11-30T03:45:42.613Z,-1.23
2017-11-30T03:46:46.065Z,-1.16
2017-11-30T03:47:49.704Z,-1.19
2017-11-30T03:48:52.868Z,-1.03
2017-11-30T03:49:55.741Z,-1.11
2017-11-30T03:50:58.595Z,-1.05
2017-11-30T03:52:01.450Z,-1.08
2017-11-30T03:53:04.314Z,-1.00
2017-11-30T03:54:07.626Z,-1.16
2017-11-30T03:55:10.650Z,-1.17
2017-11-30T03:56:13.548Z,-1.04
2017-11-30T03:57:16.468Z,-1.00
2017-11-30T03:58:19.361Z,-1.10
2017-11-30T03:59:22.289Z,-1.08
2017-11-30T04:00:25.580Z,-1.01
2017-11-30T04:01:28.461Z,-0.90
2017-11-30T04:02:31.372Z,-0.89
2017-11-30T04:03:34.286Z,-0.68
2017-11-30T04:04:37.309Z,-0.97
2017-11-30T04:05:40.247Z,-1.06
2017-11-30T04:06:43.494Z,-1.02
2017-11-30T04:07:46.399Z,-1.07
2017-11-30T04:08:49.365Z,-1.10
2017-11-30T04:09:52.631Z,-1.11
2017-11-30T04:10:55.607Z,-1.08
2017-11-30T04:11:58.673Z,-1.00
2017-11-30T04:13:02.022Z,-0.91
2017-11-30T04:14:04.920Z,-0.86
2017-11-30T04:15:07.875Z,-0.79
2017-11-30T04:16:10.855Z,-0.95
2017-11-30T04:17:13.850Z,-1.08
2017-11-30T04:18:16.837Z,-1.12
2017-11-30T04:19:19.783Z,-0.89
2017-11-30T04:20:22.684Z,-0.87
2017-11-30T04:21:25.616Z,-0.92
2017-11-30T04:22:28.566Z,-0.65
2017-11-30T04:23:31.982Z,-0.68
2017-11-30T04:24:34.886Z,-0.71
2017-11-30T04:25:37.797Z,-0.92
2017-11-30T04:26:40.745Z,-0.96
2017-11-30T04:27:43.681Z,-0.94
2017-11-30T04:28:46.607Z,-0.98
2017-11-30T04:29:49.963Z,-0.93
2017-11-30T04:30:52.780Z,-0.89
2017-11-30T04:31:55.843Z,-0.92
2017-11-30T04:32:58.673Z,-0.96
2017-11-30T04:34:01.800Z,-0.92
2017-11-30T04:35:04.612Z,-0.87
2017-11-30T04:36:07.864Z,-0.92
2017-11-30T04:37:11.078Z,-0.86
2017-11-30T04:38:14.316Z,-0.88
2017-11-30T04:39:17.581Z,-0.92
2017-11-30T04:40:20.751Z,-0.98
2017-11-30T04:41:23.688Z,-0.99
2017-11-30T04:42:26.656Z,-0.94
2017-11-30T04:43:29.613Z,-0.92
2017-11-30T04:44:32.554Z,-0.96
2017-11-30T04:45:35.371Z,-0.96
2017-11-30T04:46:38.424Z,-1.01
2017-11-30T04:47:41.360Z,-1.01
2017-11-30T04:48:44.345Z,-0.84
2017-11-30T04:49:47.303Z,-0.83
2017-11-30T04:50:50.237Z,-0.76
2017-11-30T04:51:53.272Z,-0.92
2017-11-30T04:52:56.775Z,-0.93
2017-11-30T04:53:59.856Z,-0.90
2017-11-30T04:55:02.818Z,-0.83
2017-11-30T04:56:05.765Z,-0.78
2017-11-30T04:57:08.776Z,-0.79
2017-11-30T04:58:11.711Z,-0.76
2017-11-30T04:59:15.075Z,-0.83
2017-11-30T05:00:18.048Z,-0.81
2017-11-30T05:01:21.057Z,-0.84
2017-11-30T05:02:24.009Z,-0.76
2017-11-30T05:03:26.954Z,-0.64
2017-11-30T05:04:29.921Z,-0.70
2017-11-30T05:05:33.225Z,-0.65
2017-11-30T05:06:36.248Z,-0.67
2017-11-30T05:07:39.368Z,-0.67
2017-11-30T05:08:42.465Z,-0.62
2017-11-30T05:09:45.638Z,-0.64
2017-11-30T05:10:48.575Z,-0.68
2017-11-30T05:11:51.954Z,-0.72
2017-11-30T05:12:54.921Z,-0.81
2017-11-30T05:13:57.877Z,-0.61
2017-11-30T05:15:00.841Z,-0.68
2017-11-30T05:16:03.803Z,-0.59
2017-11-30T05:17:06.727Z,-0.53
2017-11-30T05:18:10.202Z,-0.61
2017-11-30T05:19:13.182Z,-0.77
2017-11-30T05:20:16.145Z,-0.83
2017-11-30T05:21:19.113Z,-0.80
2017-11-30T05:22:22.087Z,-0.81
2017-11-30T05:23:25.019Z,-0.76
2017-11-30T05:24:28.404Z,-0.79
2017-11-30T05:25:31.403Z,-0.82
2017-11-30T05:26:34.384Z,-0.78
2017-11-30T05:27:37.347Z,-0.57
2017-11-30T05:28:40.379Z,-0.79
2017-11-30T05:29:43.332Z,-0.78
2017-11-30T05:30:46.688Z,-0.71
2017-11-30T05:31:49.625Z,-0.64
2017-11-30T05:32:52.607Z,-0.59
2017-11-30T05:33:55.617Z,-0.49
2017-11-30T05:34:58.690Z,-0.62
2017-11-30T05:36:01.675Z,-0.42
2017-11-30T05:37:05.079Z,-0.60
2017-11-30T05:38:07.997Z,-0.40
2017-11-30T05:39:10.930Z,-0.45
2017-11-30T05:40:13.861Z,-0.51
2017-11-30T05:41:16.883Z,-0.41
2017-11-30T05:42:20.356Z,-0.68
2017-11-30T05:43:23.904Z,-0.56
2017-11-30T05:44:26.883Z,-0.51
2017-11-30T05:45:29.828Z,-0.50
2017-11-30T05:46:32.771Z,-0.58
2017-11-30T05:47:35.722Z,-0.68
2017-11-30T05:48:38.717Z,-0.56
2017-11-30T05:49:42.056Z,-0.79
2017-11-30T05:50:45.010Z,-0.70
2017-11-30T05:51:48.355Z,-0.39
2017-11-30T05:52:51.362Z,-0.54
2017-11-30T05:53:54.307Z,-0.24
2017-11-30T05:54:57.299Z,-0.25
2017-11-30T05:56:01.609Z,-0.29
2017-11-30T05:57:04.517Z,-0.47
2017-11-30T05:58:07.537Z,-0.24
2017-11-30T05:59:10.531Z,-0.44
2017-11-30T06:00:13.455Z,-0.52
2017-11-30T06:01:16.343Z,-0.23
2017-11-30T06:02:19.180Z,-0.44
2017-11-30T06:03:22.038Z,-0.56
2017-11-30T06:04:24.915Z,-0.66
2017-11-30T06:05:27.832Z,-0.39
2017-11-30T06:06:30.705Z,-0.62
2017-11-30T06:07:34.039Z,-0.63
2017-11-30T06:08:37.469Z,-0.35
2017-11-30T06:09:40.327Z,-0.32
2017-11-30T06:10:43.320Z,-0.26
2017-11-30T06:11:46.174Z,-0.34
2017-11-30T06:12:49.630Z,-0.24
2017-11-30T06:13:52.956Z,-0.34
2017-11-30T06:14:55.986Z,-0.43
2017-11-30T06:15:58.950Z,-0.60
2017-11-30T06:17:01.887Z,-0.67
2017-11-30T06:18:05.139Z,-0.67
2017-11-30T06:19:08.081Z,-0.65
2017-11-30T06:20:11.511Z,-0.52
2017-11-30T06:21:14.508Z,-0.59
2017-11-30T06:22:17.442Z,-0.59
2017-11-30T06:23:21.047Z,-0.39
2017-11-30T06:24:23.995Z,-0.29
2017-11-30T06:25:26.970Z,-0.23
2017-11-30T06:26:29.932Z,-0.02
2017-11-30T06:27:32.908Z,0.05
2017-11-30T06:28:35.861Z,0.02
2017-11-30T06:29:38.720Z,-0.13
2017-11-30T06:30:42.215Z,-0.23
2017-11-30T06:31:45.553Z,-0.31
2017-11-30T06:32:48.520Z,-0.14
2017-11-30T06:33:51.696Z,-0.05
2017-11-30T06:34:55.046Z,-0.06
2017-11-30T06:35:58.183Z,-0.06
2017-11-30T06:37:01.255Z,-0.24
2017-11-30T06:38:04.755Z,-0.13
2017-11-30T06:39:07.841Z,-0.06
2017-11-30T06:40:10.831Z,0.00
2017-11-30T06:41:14.008Z,-0.02
2017-11-30T06:42:17.470Z,-0.11
2017-11-30T06:43:20.575Z,-0.18
2017-11-30T06:44:23.995Z,-0.01
2017-11-30T06:45:26.974Z,-0.19
2017-11-30T06:46:30.097Z,-0.07
2017-11-30T06:47:33.120Z,0.04
2017-11-30T06:48:36.233Z,0.09
2017-11-30T06:49:39.726Z,0.09
2017-11-30T06:50:42.831Z,-0.24
2017-11-30T06:51:45.954Z,-0.04
2017-11-30T06:52:48.994Z,-0.26
2017-11-30T06:53:51.981Z,-0.18
2017-11-30T06:54:54.929Z,-0.23
2017-11-30T06:55:58.536Z,-0.25
2017-11-30T06:57:02.087Z,0.08
2017-11-30T06:58:05.075Z,0.23
2017-11-30T06:59:08.008Z,-0.04
2017-11-30T07:00:11.032Z,-0.03
2017-11-30T07:01:14.050Z,0.05
2017-11-30T07:02:17.486Z,0.08
2017-11-30T07:03:20.565Z,-0.03
2017-11-30T07:04:23.514Z,0.05
2017-11-30T07:05:26.467Z,0.00
2017-11-30T07:06:29.446Z,-0.14
2017-11-30T07:07:32.442Z,-0.19
2017-11-30T07:08:35.726Z,-0.12
2017-11-30T07:09:38.703Z,-0.07
2017-11-30T07:10:41.825Z,0.04
2017-11-30T07:11:44.982Z,0.08
2017-11-30T07:12:47.919Z,-0.11
2017-11-30T07:13:50.888Z,-0.07
2017-11-30T07:14:54.334Z,0.02
2017-11-30T07:15:57.312Z,0.13
2017-11-30T07:17:00.368Z,-0.01
2017-11-30T07:18:04.102Z,0.20
2017-11-30T07:19:07.065Z,0.02
2017-11-30T07:20:09.969Z,0.11
2017-11-30T07:21:13.311Z,0.10
2017-11-30T07:22:16.294Z,0.07
2017-11-30T07:23:19.224Z,0.08
2017-11-30T07:24:22.090Z,0.18
2017-11-30T07:25:25.013Z,0.11
2017-11-30T07:26:27.876Z,0.12
2017-11-30T07:27:31.421Z,0.14
2017-11-30T07:28:34.519Z,0.10
2017-11-30T07:29:37.588Z,0.09
2017-11-30T07:30:40.552Z,0.06
2017-11-30T07:31:43.464Z,0.03
2017-11-30T07:32:46.436Z,0.23
2017-11-30T07:33:49.833Z,0.07
2017-11-30T07:34:52.746Z,0.02
2017-11-30T07:35:55.632Z,0.09
2017-11-30T07:36:58.605Z,0.15
2017-11-30T07:38:01.531Z,0.12
2017-11-30T07:39:05.196Z,0.24
2017-11-30T07:40:08.593Z,0.08
2017-11-30T07:41:12.590Z,0.03
2017-11-30T07:42:16.782Z,0.08
2017-11-30T07:43:19.790Z,0.26
2017-11-30T07:44:22.748Z,0.14
2017-11-30T07:45:25.691Z,0.21
2017-11-30T07:46:29.054Z,0.12
2017-11-30T07:47:31.951Z,0.20
2017-11-30T07:48:34.873Z,-0.03
2017-11-30T07:49:37.750Z,0.12
2017-11-30T07:50:40.728Z,0.17
2017-11-30T07:51:43.699Z,0.01
2017-11-30T07:52:46.640Z,0.21
2017-11-30T07:53:49.589Z,0.37
2017-11-30T07:54:52.548Z,0.50
2017-11-30T07:55:56.139Z,0.17
2017-11-30T07:56:59.148Z,0.35
2017-11-30T07:58:02.725Z,0.37
2017-11-30T07:59:06.089Z,0.32
2017-11-30T08:00:09.109Z,0.32
2017-11-30T08:01:12.393Z,0.15
2017-11-30T08:02:15.474Z,0.14
2017-11-30T08:03:18.428Z,-0.02
2017-11-30T08:04:21.837Z,0.04
2017-11-30T08:05:24.938Z,0.06
2017-11-30T08:06:27.953Z,0.13
2017-11-30T08:07:31.258Z,0.35
2017-11-30T08:08:34.776Z,0.27
2017-11-30T08:09:37.849Z,0.09
2017-11-30T08:10:41.474Z,0.03
2017-11-30T08:11:44.553Z,0.10
2017-11-30T08:12:47.540Z,0.18
2017-11-30T08:13:50.484Z,0.13
2017-11-30T08:14:53.961Z,0.06
2017-11-30T08:15:57.022Z,-0.03
2017-11-30T08:17:00.460Z,-0.09
2017-11-30T08:18:03.441Z,-0.09
2017-11-30T08:19:06.463Z,-0.05
2017-11-30T08:20:09.493Z,0.01
2017-11-30T08:21:12.449Z,0.04
2017-11-30T08:22:15.358Z,-0.02
2017-11-30T08:23:18.881Z,-0.08
2017-11-30T08:24:21.899Z,-0.02
2017-11-30T08:25:24.970Z,-0.25
2017-11-30T08:26:28.031Z,-0.15
2017-11-30T08:27:30.977Z,-0.26
2017-11-30T08:28:34.038Z,-0.05
2017-11-30T08:29:37.371Z,-0.28
2017-11-30T08:30:40.408Z,0.15
2017-11-30T08:31:43.514Z,0.17
2017-11-30T08:32:46.400Z,0.07
2017-11-30T08:33:49.333Z,0.08
2017-11-30T08:34:52.298Z,0.03
2017-11-30T08:35:55.617Z,0.02
2017-11-30T08:36:58.501Z,-0.13
2017-11-30T08:38:01.545Z,-0.17
2017-11-30T08:39:04.509Z,0.04
2017-11-30T08:40:07.444Z,0.13
2017-11-30T08:41:10.318Z,-0.06
2017-11-30T08:42:13.730Z,0.01
2017-11-30T08:43:16.691Z,-0.04
2017-11-30T08:44:19.784Z,-0.12
2017-11-30T08:45:22.722Z,0.04
2017-11-30T08:46:25.681Z,0.21
2017-11-30T08:47:28.719Z,0.11
2017-11-30T08:48:32.011Z,0.06
2017-11-30T08:49:35.069Z,0.08
2017-11-30T08:50:38.231Z,0.17
2017-11-30T08:51:41.799Z,0.07
2017-11-30T08:52:44.668Z,0.21
2017-11-30T08:53:47.559Z,0.07
2017-11-30T08:54:50.812Z,0.05
2017-11-30T08:55:53.793Z,1.56
2017-11-30T08:56:57.190Z,0.52
2017-11-30T08:58:00.014Z,0.08
2017-11-30T08:59:03.033Z,0.29
2017-11-30T09:00:05.945Z,0.38
2017-11-30T09:01:10.023Z,0.49
2017-11-30T09:02:13.045Z,0.44
2017-11-30T09:03:16.044Z,0.49
2017-11-30T09:04:19.040Z,0.23
2017-11-30T09:05:22.034Z,1.78
2017-11-30T09:06:25.112Z,4.69
2017-11-30T09:07:28.598Z,0.44
2017-11-30T09:08:31.652Z,0.31
2017-11-30T09:09:34.861Z,0.04
2017-11-30T09:10:38.461Z,-0.07
2017-11-30T09:11:42.128Z,0.07
2017-11-30T09:12:44.853Z,0.06
2017-11-30T09:13:48.022Z,0.09
2017-11-30T09:14:50.645Z,0.21
2017-11-30T09:15:53.499Z,0.50
2017-11-30T09:16:56.340Z,0.29
2017-11-30T09:17:58.948Z,0.18
2017-11-30T09:19:01.536Z,0.24
2017-11-30T09:20:04.635Z,0.18
2017-11-30T09:21:07.281Z,0.05
2017-11-30T09:22:09.900Z,0.13
2017-11-30T09:23:12.613Z,0.24
2017-11-30T09:24:15.223Z,0.28
2017-11-30T09:25:18.003Z,0.22
2017-11-30T09:26:21.022Z,0.19
2017-11-30T09:27:23.797Z,0.32
2017-11-30T09:28:26.520Z,0.66
2017-11-30T09:29:29.202Z,0.41
2017-11-30T09:30:31.856Z,0.55
2017-11-30T09:31:34.637Z,0.20
2017-11-30T09:32:37.692Z,0.44
2017-11-30T09:33:40.325Z,0.39
2017-11-30T09:34:43.036Z,0.19
2017-11-30T09:35:46.053Z,0.43
2017-11-30T09:36:48.877Z,0.49
2017-11-30T09:37:51.518Z,0.48
2017-11-30T09:38:54.367Z,0.54
2017-11-30T09:39:57.078Z,0.61
2017-11-30T09:40:59.837Z,0.45
2017-11-30T09:42:02.584Z,0.37
2017-11-30T09:43:05.311Z,0.69
2017-11-30T09:44:08.682Z,0.79
2017-11-30T09:45:11.369Z,0.58
2017-11-30T09:46:14.049Z,0.68
2017-11-30T09:47:16.743Z,0.58
2017-11-30T09:48:19.428Z,0.82
2017-11-30T09:49:22.219Z,0.61
2017-11-30T09:50:25.319Z,0.49
2017-11-30T09:51:28.175Z,0.44
2017-11-30T09:52:30.816Z,0.41
2017-11-30T09:53:33.507Z,0.59
2017-11-30T09:54:36.193Z,0.75
2017-11-30T09:55:38.885Z,0.61
2017-11-30T09:56:42.983Z,0.62
2017-11-30T09:57:45.782Z,0.58
2017-11-30T09:58:48.515Z,0.69
2017-11-30T09:59:51.273Z,0.59
2017-11-30T10:00:53.871Z,0.46
2017-11-30T10:01:56.723Z,0.79
2017-11-30T10:02:59.855Z,0.59
2017-11-30T10:04:02.676Z,0.64
2017-11-30T10:05:05.382Z,0.87
2017-11-30T10:06:08.042Z,0.72
2017-11-30T10:07:10.671Z,0.48
2017-11-30T10:08:13.359Z,0.49
2017-11-30T10:09:16.012Z,0.61
2017-11-30T10:10:18.804Z,0.95
2017-11-30T10:11:21.603Z,2.83
2017-11-30T10:12:24.334Z,1.09
2017-11-30T10:13:27.100Z,0.85
2017-11-30T10:14:30.413Z,0.74
2017-11-30T10:15:33.063Z,0.86
2017-11-30T10:16:35.845Z,0.76
2017-11-30T10:17:38.955Z,0.61
2017-11-30T10:18:41.911Z,0.76
2017-11-30T10:19:44.659Z,0.68
2017-11-30T10:20:47.811Z,0.72
2017-11-30T10:21:50.492Z,0.56
2017-11-30T10:22:53.168Z,0.44
2017-11-30T10:23:55.826Z,0.51
2017-11-30T10:24:58.534Z,0.62
2017-11-30T10:26:01.224Z,0.64
2017-11-30T10:27:04.304Z,0.67
2017-11-30T10:28:06.943Z,0.72
2017-11-30T10:29:10.235Z,0.79
2017-11-30T10:30:13.576Z,0.75
2017-11-30T10:31:16.294Z,0.85
2017-11-30T10:32:19.040Z,0.84
2017-11-30T10:33:21.681Z,0.91
2017-11-30T10:34:24.348Z,0.80
2017-11-30T10:35:27.010Z,0.78
2017-11-30T10:36:29.724Z,0.93
2017-11-30T10:37:32.384Z,0.98
2017-11-30T10:38:35.319Z,1.02
2017-11-30T10:39:38.066Z,0.97
2017-11-30T10:40:40.981Z,0.76
2017-11-30T10:41:43.638Z,1.00
2017-11-30T10:42:46.397Z,1.01
2017-11-30T10:43:49.073Z,0.79
2017-11-30T10:44:52.150Z,0.70
2017-11-30T10:45:54.828Z,0.76
2017-11-30T10:46:57.503Z,0.81
2017-11-30T10:48:00.154Z,0.89
2017-11-30T10:49:02.822Z,0.95
2017-11-30T10:50:05.557Z,0.86
2017-11-30T10:51:08.527Z,0.91
2017-11-30T10:52:11.203Z,0.70
2017-11-30T10:53:13.867Z,0.93
2017-11-30T10:54:16.674Z,0.66
2017-11-30T10:55:19.371Z,0.84
2017-11-30T10:56:22.804Z,0.98
2017-11-30T10:57:25.759Z,0.86
2017-11-30T10:58:28.480Z,0.69
2017-11-30T10:59:31.203Z,0.70
2017-11-30T11:00:33.860Z,0.55
2017-11-30T11:01:36.580Z,0.67
2017-11-30T11:02:39.796Z,0.79
2017-11-30T11:03:42.856Z,0.58
2017-11-30T11:04:45.640Z,0.71
2017-11-30T11:05:48.355Z,0.75
2017-11-30T11:06:51.101Z,1.00
2017-11-30T11:07:53.773Z,1.15
2017-11-30T11:08:56.463Z,1.09
2017-11-30T11:09:59.634Z,0.82
2017-11-30T11:11:02.324Z,0.73
2017-11-30T11:12:05.089Z,0.88
2017-11-30T11:13:07.698Z,1.06
2017-11-30T11:14:10.990Z,0.82
2017-11-30T11:15:13.745Z,0.62
2017-11-30T11:16:16.824Z,0.79
2017-11-30T11:17:19.586Z,0.90
2017-11-30T11:18:22.299Z,0.86
2017-11-30T11:19:25.008Z,0.68
2017-11-30T11:20:27.786Z,0.67
2017-11-30T11:21:30.473Z,0.67
2017-11-30T11:22:33.653Z,0.78
2017-11-30T11:23:36.618Z,0.82
2017-11-30T11:24:39.594Z,0.74
2017-11-30T11:25:42.563Z,0.58
2017-11-30T11:26:45.518Z,0.54
2017-11-30T11:27:48.567Z,0.49
2017-11-30T11:28:51.912Z,0.60
2017-11-30T11:29:55.702Z,0.66
2017-11-30T11:30:58.700Z,0.73
2017-11-30T11:32:01.696Z,0.64
2017-11-30T11:33:04.654Z,0.54
2017-11-30T11:34:07.623Z,0.62
2017-11-30T11:35:10.907Z,0.52
2017-11-30T11:36:13.941Z,0.50
2017-11-30T11:37:16.918Z,0.51
2017-11-30T11:38:19.902Z,0.62
2017-11-30T11:39:22.895Z,0.67
2017-11-30T11:40:25.859Z,0.68
2017-11-30T11:41:29.153Z,0.79
2017-11-30T11:42:32.169Z,0.60
2017-11-30T11:43:35.409Z,0.69
2017-11-30T11:44:38.358Z,0.63
2017-11-30T11:45:41.315Z,0.73
2017-11-30T11:46:44.290Z,0.65
2017-11-30T11:47:47.566Z,0.73
2017-11-30T11:48:50.514Z,0.81
2017-11-30T11:49:53.522Z,0.80
2017-11-30T11:50:57.529Z,0.89
2017-11-30T11:52:00.475Z,0.90
2017-11-30T11:53:03.507Z,1.01
2017-11-30T11:54:06.813Z,1.04
2017-11-30T11:55:09.879Z,1.12
2017-11-30T11:56:12.904Z,1.10
2017-11-30T11:57:15.922Z,0.96
2017-11-30T11:58:18.921Z,0.96
2017-11-30T11:59:22.151Z,0.98
2017-11-30T12:00:25.612Z,0.98
2017-11-30T12:01:28.500Z,1.04
2017-11-30T12:02:31.622Z,0.98
2017-11-30T12:03:34.646Z,1.11
2017-11-30T12:04:37.657Z,1.03
2017-11-30T12:05:40.611Z,1.13
2017-11-30T12:06:43.652Z,1.16
2017-11-30T12:07:46.613Z,1.08
2017-11-30T12:08:49.584Z,1.12
2017-11-30T12:09:52.571Z,0.92
2017-11-30T12:10:55.536Z,0.81
2017-11-30T12:11:58.786Z,0.84
2017-11-30T12:13:02.079Z,0.91
2017-11-30T12:14:05.337Z,0.85
2017-11-30T12:15:08.304Z,0.83
2017-11-30T12:16:11.353Z,0.84
2017-11-30T12:17:14.316Z,0.81
2017-11-30T12:18:17.590Z,0.81
2017-11-30T12:19:20.571Z,0.82
2017-11-30T12:20:23.506Z,0.83
2017-11-30T12:21:26.495Z,0.79
2017-11-30T12:22:29.490Z,0.82
2017-11-30T12:23:32.502Z,0.80
2017-11-30T12:24:35.733Z,0.88
2017-11-30T12:25:38.747Z,0.68
2017-11-30T12:26:41.707Z,0.54
2017-11-30T12:27:44.672Z,0.48
2017-11-30T12:28:47.690Z,0.56
2017-11-30T12:29:50.749Z,0.71
2017-11-30T12:30:54.159Z,0.59
2017-11-30T12:31:57.112Z,0.80
2017-11-30T12:33:00.230Z,0.80
2017-11-30T12:34:03.179Z,0.84
2017-11-30T12:35:06.179Z,0.99
2017-11-30T12:36:09.170Z,1.10
2017-11-30T12:37:12.435Z,0.90
2017-11-30T12:38:15.571Z,0.92
2017-11-30T12:39:18.596Z,1.01
2017-11-30T12:40:21.641Z,1.11
2017-11-30T12:41:24.599Z,1.07
2017-11-30T12:42:27.687Z,1.07
2017-11-30T12:43:31.068Z,1.10
2017-11-30T12:44:34.013Z,0.90
2017-11-30T12:45:37.032Z,0.95
2017-11-30T12:46:40.029Z,0.85
2017-11-30T12:47:43.167Z,0.89
2017-11-30T12:48:46.267Z,0.80
2017-11-30T12:49:49.907Z,0.85
2017-11-30T12:50:53.133Z,0.86
2017-11-30T12:51:56.128Z,0.84
2017-11-30T12:52:59.189Z,0.98
2017-11-30T12:54:02.212Z,0.98
2017-11-30T12:55:05.289Z,1.12
2017-11-30T12:56:08.767Z,1.06
2017-11-30T12:57:12.272Z,0.93
2017-11-30T12:58:15.312Z,1.01
2017-11-30T12:59:18.281Z,0.89
2017-11-30T13:00:21.331Z,0.97
2017-11-30T13:01:24.276Z,0.93
2017-11-30T13:02:27.610Z,0.94
2017-11-30T13:03:30.663Z,0.94
2017-11-30T13:04:33.754Z,0.93
2017-11-30T13:05:37.452Z,1.05
2017-11-30T13:06:40.521Z,0.95
2017-11-30T13:07:43.497Z,0.89
2017-11-30T13:08:46.519Z,0.87
2017-11-30T13:09:49.466Z,0.88
2017-11-30T13:10:52.494Z,0.91
2017-11-30T13:11:55.520Z,0.92
2017-11-30T13:12:58.463Z,0.92
2017-11-30T13:14:01.592Z,0.85
2017-11-30T13:15:05.089Z,0.83
2017-11-30T13:16:08.182Z,0.79
2017-11-30T13:17:11.185Z,0.67
2017-11-30T13:18:14.272Z,0.49
2017-11-30T13:19:18.050Z,0.63
2017-11-30T13:20:21.110Z,0.88
2017-11-30T13:21:24.537Z,0.64
2017-11-30T13:22:27.534Z,0.90
2017-11-30T13:23:31.970Z,0.60
2017-11-30T13:24:37.323Z,0.55
2017-11-30T13:25:40.777Z,0.55
2017-11-30T13:26:45.585Z,0.69
2017-11-30T13:27:50.448Z,0.54
2017-11-30T13:28:53.526Z,0.54
2017-11-30T13:29:57.718Z,0.60
2017-11-30T13:31:00.680Z,0.44
2017-11-30T13:32:03.706Z,0.57
2017-11-30T13:33:07.238Z,0.49
2017-11-30T13:34:10.178Z,0.65
2017-11-30T13:35:13.199Z,0.90
2017-11-30T13:36:16.184Z,0.93
2017-11-30T13:37:19.247Z,0.91
2017-11-30T13:38:22.207Z,0.81
2017-11-30T13:39:25.507Z,0.81
2017-11-30T13:40:28.532Z,0.85
2017-11-30T13:41:31.533Z,0.93
2017-11-30T13:42:34.495Z,0.86
2017-11-30T13:43:37.444Z,0.87
2017-11-30T13:44:40.495Z,0.88